sensor_id;sensor_type;location;lat;lon;timestamp;P1;durP1;ratioP1;P2;durP2;ratioP2
67456;SDS011;54319;52.038;4.640;2023-09-30T00:00:31;13.17;;;4.40;;
67456;SDS011;54319;52.038;4.640;2023-09-30T00:03:00;8.10;;;4.80;;
67456;SDS011;54319;52.038;4.640;2023-09-30T00:05:27;13.32;;;4.63;;
67456;SDS011;54319;52.038;4.640;2023-09-30T00:07:53;10.13;;;4.67;;
67456;SDS011;54319;52.038;4.640;2023-09-30T00:10:21;8.88;;;4.65;;
67456;SDS011;54319;52.038;4.640;2023-09-30T00:12:48;12.65;;;4.88;;
67456;SDS011;54319;52.038;4.640;2023-09-30T00:15:15;12.10;;;4.88;;
67456;SDS011;54319;52.038;4.640;2023-09-30T00:17:41;9.47;;;4.80;;
67456;SDS011;54319;52.038;4.640;2023-09-30T00:20:10;9.37;;;5.13;;
67456;SDS011;54319;52.038;4.640;2023-09-30T00:22:39;12.60;;;5.63;;
67456;SDS011;54319;52.038;4.640;2023-09-30T00:25:07;7.83;;;4.70;;
67456;SDS011;54319;52.038;4.640;2023-09-30T00:27:34;12.88;;;5.55;;
67456;SDS011;54319;52.038;4.640;2023-09-30T00:30:00;9.67;;;5.63;;
67456;SDS011;54319;52.038;4.640;2023-09-30T00:32:27;11.10;;;5.70;;
67456;SDS011;54319;52.038;4.640;2023-09-30T00:34:54;9.93;;;5.53;;
67456;SDS011;54319;52.038;4.640;2023-09-30T00:37:23;11.27;;;5.65;;
67456;SDS011;54319;52.038;4.640;2023-09-30T00:39:49;9.73;;;6.13;;
67456;SDS011;54319;52.038;4.640;2023-09-30T00:42:17;11.80;;;5.70;;
67456;SDS011;54319;52.038;4.640;2023-09-30T00:44:45;10.43;;;5.38;;
67456;SDS011;54319;52.038;4.640;2023-09-30T00:47:12;9.45;;;4.65;;
67456;SDS011;54319;52.038;4.640;2023-09-30T00:49:40;9.23;;;4.80;;
67456;SDS011;54319;52.038;4.640;2023-09-30T00:52:08;8.63;;;5.00;;
67456;SDS011;54319;52.038;4.640;2023-09-30T00:54:39;12.30;;;5.00;;
67456;SDS011;54319;52.038;4.640;2023-09-30T00:57:07;12.95;;;5.60;;
67456;SDS011;54319;52.038;4.640;2023-09-30T00:59:34;11.50;;;5.78;;
67456;SDS011;54319;52.038;4.640;2023-09-30T01:02:01;16.97;;;6.30;;
67456;SDS011;54319;52.038;4.640;2023-09-30T01:04:36;11.23;;;5.32;;
67456;SDS011;54319;52.038;4.640;2023-09-30T01:07:05;9.80;;;5.30;;
67456;SDS011;54319;52.038;4.640;2023-09-30T01:09:32;11.57;;;5.53;;
67456;SDS011;54319;52.038;4.640;2023-09-30T01:12:01;15.27;;;5.50;;
67456;SDS011;54319;52.038;4.640;2023-09-30T01:14:28;15.35;;;5.50;;
67456;SDS011;54319;52.038;4.640;2023-09-30T01:16:56;10.38;;;5.65;;
67456;SDS011;54319;52.038;4.640;2023-09-30T01:19:23;15.65;;;6.40;;
67456;SDS011;54319;52.038;4.640;2023-09-30T01:21:52;13.77;;;6.28;;
67456;SDS011;54319;52.038;4.640;2023-09-30T01:24:21;15.50;;;7.10;;
67456;SDS011;54319;52.038;4.640;2023-09-30T01:26:48;10.38;;;6.20;;
67456;SDS011;54319;52.038;4.640;2023-09-30T01:29:15;10.80;;;6.20;;
67456;SDS011;54319;52.038;4.640;2023-09-30T01:31:42;16.20;;;6.60;;
67456;SDS011;54319;52.038;4.640;2023-09-30T01:34:08;16.40;;;6.03;;
67456;SDS011;54319;52.038;4.640;2023-09-30T01:36:36;11.48;;;5.88;;
67456;SDS011;54319;52.038;4.640;2023-09-30T01:39:05;16.20;;;6.20;;
67456;SDS011;54319;52.038;4.640;2023-09-30T01:41:32;14.90;;;5.80;;
67456;SDS011;54319;52.038;4.640;2023-09-30T01:43:59;11.43;;;5.82;;
67456;SDS011;54319;52.038;4.640;2023-09-30T01:46:26;11.95;;;6.10;;
67456;SDS011;54319;52.038;4.640;2023-09-30T01:48:52;13.57;;;6.43;;
67456;SDS011;54319;52.038;4.640;2023-09-30T01:51:19;16.80;;;6.50;;
67456;SDS011;54319;52.038;4.640;2023-09-30T01:53:46;10.63;;;5.65;;
67456;SDS011;54319;52.038;4.640;2023-09-30T01:56:14;14.87;;;6.87;;
67456;SDS011;54319;52.038;4.640;2023-09-30T01:58:41;16.40;;;7.15;;
67456;SDS011;54319;52.038;4.640;2023-09-30T02:01:08;13.65;;;6.60;;
67456;SDS011;54319;52.038;4.640;2023-09-30T02:06:02;20.05;;;7.00;;
67456;SDS011;54319;52.038;4.640;2023-09-30T02:10:56;13.00;;;6.93;;
67456;SDS011;54319;52.038;4.640;2023-09-30T02:13:27;16.27;;;7.57;;
67456;SDS011;54319;52.038;4.640;2023-09-30T02:15:56;17.77;;;7.32;;
67456;SDS011;54319;52.038;4.640;2023-09-30T02:18:23;16.20;;;7.50;;
67456;SDS011;54319;52.038;4.640;2023-09-30T02:20:49;12.88;;;7.30;;
67456;SDS011;54319;52.038;4.640;2023-09-30T02:23:18;13.73;;;7.85;;
67456;SDS011;54319;52.038;4.640;2023-09-30T02:25:46;15.52;;;7.88;;
67456;SDS011;54319;52.038;4.640;2023-09-30T02:28:12;18.60;;;7.80;;
67456;SDS011;54319;52.038;4.640;2023-09-30T02:30:41;14.10;;;7.87;;
67456;SDS011;54319;52.038;4.640;2023-09-30T02:33:07;14.98;;;7.47;;
67456;SDS011;54319;52.038;4.640;2023-09-30T02:35:34;15.13;;;7.55;;
67456;SDS011;54319;52.038;4.640;2023-09-30T02:38:03;13.68;;;7.25;;
67456;SDS011;54319;52.038;4.640;2023-09-30T02:40:30;19.15;;;8.05;;
67456;SDS011;54319;52.038;4.640;2023-09-30T02:42:56;13.17;;;7.43;;
67456;SDS011;54319;52.038;4.640;2023-09-30T02:45:23;16.53;;;8.30;;
67456;SDS011;54319;52.038;4.640;2023-09-30T02:47:51;16.17;;;7.47;;
67456;SDS011;54319;52.038;4.640;2023-09-30T02:50:17;19.13;;;8.77;;
67456;SDS011;54319;52.038;4.640;2023-09-30T02:52:44;22.03;;;9.00;;
67456;SDS011;54319;52.038;4.640;2023-09-30T02:55:11;19.08;;;8.70;;
67456;SDS011;54319;52.038;4.640;2023-09-30T02:57:38;18.02;;;8.23;;
67456;SDS011;54319;52.038;4.640;2023-09-30T03:00:06;16.63;;;8.68;;
67456;SDS011;54319;52.038;4.640;2023-09-30T03:02:40;17.45;;;8.95;;
67456;SDS011;54319;52.038;4.640;2023-09-30T03:05:08;24.07;;;9.13;;
67456;SDS011;54319;52.038;4.640;2023-09-30T03:07:35;17.13;;;8.88;;
67456;SDS011;54319;52.038;4.640;2023-09-30T03:10:03;25.95;;;9.80;;
67456;SDS011;54319;52.038;4.640;2023-09-30T03:12:33;21.52;;;9.50;;
67456;SDS011;54319;52.038;4.640;2023-09-30T03:15:00;18.70;;;9.40;;
67456;SDS011;54319;52.038;4.640;2023-09-30T03:17:29;20.02;;;9.20;;
67456;SDS011;54319;52.038;4.640;2023-09-30T03:22:26;18.98;;;9.20;;
67456;SDS011;54319;52.038;4.640;2023-09-30T03:24:52;21.13;;;9.50;;
67456;SDS011;54319;52.038;4.640;2023-09-30T03:27:20;20.88;;;9.13;;
67456;SDS011;54319;52.038;4.640;2023-09-30T03:29:46;21.15;;;9.93;;
67456;SDS011;54319;52.038;4.640;2023-09-30T03:32:14;20.98;;;10.40;;
67456;SDS011;54319;52.038;4.640;2023-09-30T03:34:41;21.23;;;9.97;;
67456;SDS011;54319;52.038;4.640;2023-09-30T03:37:11;23.80;;;10.05;;
67456;SDS011;54319;52.038;4.640;2023-09-30T03:39:39;22.52;;;10.48;;
67456;SDS011;54319;52.038;4.640;2023-09-30T03:42:06;22.88;;;10.20;;
67456;SDS011;54319;52.038;4.640;2023-09-30T03:44:36;24.20;;;10.00;;
67456;SDS011;54319;52.038;4.640;2023-09-30T03:49:30;17.90;;;9.75;;
67456;SDS011;54319;52.038;4.640;2023-09-30T03:51:57;22.10;;;10.52;;
67456;SDS011;54319;52.038;4.640;2023-09-30T03:54:26;20.58;;;9.80;;
67456;SDS011;54319;52.038;4.640;2023-09-30T03:56:55;20.83;;;10.70;;
67456;SDS011;54319;52.038;4.640;2023-09-30T03:59:21;18.95;;;10.25;;
67456;SDS011;54319;52.038;4.640;2023-09-30T04:01:48;17.48;;;10.25;;
67456;SDS011;54319;52.038;4.640;2023-09-30T04:04:15;20.52;;;10.35;;
67456;SDS011;54319;52.038;4.640;2023-09-30T04:06:41;27.13;;;10.77;;
67456;SDS011;54319;52.038;4.640;2023-09-30T04:09:11;21.52;;;10.85;;
67456;SDS011;54319;52.038;4.640;2023-09-30T04:14:09;17.83;;;10.00;;
67456;SDS011;54319;52.038;4.640;2023-09-30T04:16:36;27.20;;;10.38;;
67456;SDS011;54319;52.038;4.640;2023-09-30T04:19:02;22.08;;;11.40;;
67456;SDS011;54319;52.038;4.640;2023-09-30T04:21:29;21.88;;;11.02;;
67456;SDS011;54319;52.038;4.640;2023-09-30T04:23:59;26.60;;;11.20;;
67456;SDS011;54319;52.038;4.640;2023-09-30T04:26:26;26.27;;;12.70;;
67456;SDS011;54319;52.038;4.640;2023-09-30T04:28:53;22.55;;;11.60;;
67456;SDS011;54319;52.038;4.640;2023-09-30T04:31:21;22.45;;;12.23;;
67456;SDS011;54319;52.038;4.640;2023-09-30T04:33:48;25.13;;;12.27;;
67456;SDS011;54319;52.038;4.640;2023-09-30T04:36:17;27.13;;;12.60;;
67456;SDS011;54319;52.038;4.640;2023-09-30T04:38:44;28.08;;;12.35;;
67456;SDS011;54319;52.038;4.640;2023-09-30T04:41:12;28.85;;;12.05;;
67456;SDS011;54319;52.038;4.640;2023-09-30T04:43:42;23.98;;;11.93;;
67456;SDS011;54319;52.038;4.640;2023-09-30T04:46:08;30.60;;;12.55;;
67456;SDS011;54319;52.038;4.640;2023-09-30T04:48:39;25.42;;;12.75;;
67456;SDS011;54319;52.038;4.640;2023-09-30T04:51:07;23.25;;;11.82;;
67456;SDS011;54319;52.038;4.640;2023-09-30T04:53:34;22.55;;;12.45;;
67456;SDS011;54319;52.038;4.640;2023-09-30T04:56:01;26.48;;;13.13;;
67456;SDS011;54319;52.038;4.640;2023-09-30T04:58:28;25.50;;;12.98;;
67456;SDS011;54319;52.038;4.640;2023-09-30T05:00:56;27.35;;;13.07;;
67456;SDS011;54319;52.038;4.640;2023-09-30T05:03:23;39.53;;;13.52;;
67456;SDS011;54319;52.038;4.640;2023-09-30T05:05:51;21.25;;;12.07;;
67456;SDS011;54319;52.038;4.640;2023-09-30T05:08:20;24.60;;;13.57;;
67456;SDS011;54319;52.038;4.640;2023-09-30T05:13:14;31.08;;;12.52;;
67456;SDS011;54319;52.038;4.640;2023-09-30T05:15:41;24.88;;;12.82;;
67456;SDS011;54319;52.038;4.640;2023-09-30T05:18:08;23.30;;;12.68;;
67456;SDS011;54319;52.038;4.640;2023-09-30T05:20:34;26.97;;;12.33;;
67456;SDS011;54319;52.038;4.640;2023-09-30T05:23:03;23.13;;;12.50;;
67456;SDS011;54319;52.038;4.640;2023-09-30T05:25:32;24.52;;;12.15;;
67456;SDS011;54319;52.038;4.640;2023-09-30T05:27:58;22.95;;;13.25;;
67456;SDS011;54319;52.038;4.640;2023-09-30T05:30:25;26.00;;;12.77;;
67456;SDS011;54319;52.038;4.640;2023-09-30T05:32:52;25.83;;;13.60;;
67456;SDS011;54319;52.038;4.640;2023-09-30T05:35:19;28.55;;;13.27;;
67456;SDS011;54319;52.038;4.640;2023-09-30T05:37:47;30.67;;;13.25;;
67456;SDS011;54319;52.038;4.640;2023-09-30T05:40:18;23.98;;;12.63;;
67456;SDS011;54319;52.038;4.640;2023-09-30T05:42:49;24.95;;;12.55;;
67456;SDS011;54319;52.038;4.640;2023-09-30T05:45:15;26.00;;;12.77;;
67456;SDS011;54319;52.038;4.640;2023-09-30T05:47:42;22.63;;;12.75;;
67456;SDS011;54319;52.038;4.640;2023-09-30T05:50:09;25.60;;;13.73;;
67456;SDS011;54319;52.038;4.640;2023-09-30T05:52:39;32.88;;;13.48;;
67456;SDS011;54319;52.038;4.640;2023-09-30T05:55:06;25.95;;;13.88;;
67456;SDS011;54319;52.038;4.640;2023-09-30T05:57:37;26.92;;;12.85;;
67456;SDS011;54319;52.038;4.640;2023-09-30T06:00:04;25.38;;;13.30;;
67456;SDS011;54319;52.038;4.640;2023-09-30T06:02:52;27.15;;;13.32;;
67456;SDS011;54319;52.038;4.640;2023-09-30T06:05:19;24.55;;;13.15;;
67456;SDS011;54319;52.038;4.640;2023-09-30T06:07:47;23.48;;;13.25;;
67456;SDS011;54319;52.038;4.640;2023-09-30T06:10:14;26.98;;;12.77;;
67456;SDS011;54319;52.038;4.640;2023-09-30T06:12:45;24.55;;;13.32;;
67456;SDS011;54319;52.038;4.640;2023-09-30T06:15:12;29.35;;;14.98;;
67456;SDS011;54319;52.038;4.640;2023-09-30T06:17:39;27.42;;;14.23;;
67456;SDS011;54319;52.038;4.640;2023-09-30T06:20:07;23.92;;;14.32;;
67456;SDS011;54319;52.038;4.640;2023-09-30T06:22:41;30.13;;;14.63;;
67456;SDS011;54319;52.038;4.640;2023-09-30T06:25:08;25.60;;;13.95;;
67456;SDS011;54319;52.038;4.640;2023-09-30T06:27:35;26.45;;;14.73;;
67456;SDS011;54319;52.038;4.640;2023-09-30T06:30:04;29.95;;;15.25;;
67456;SDS011;54319;52.038;4.640;2023-09-30T06:32:31;27.88;;;15.23;;
67456;SDS011;54319;52.038;4.640;2023-09-30T06:34:59;23.80;;;13.52;;
67456;SDS011;54319;52.038;4.640;2023-09-30T06:37:27;29.60;;;15.70;;
67456;SDS011;54319;52.038;4.640;2023-09-30T06:39:54;28.20;;;16.13;;
67456;SDS011;54319;52.038;4.640;2023-09-30T06:42:21;29.13;;;14.63;;
67456;SDS011;54319;52.038;4.640;2023-09-30T06:44:48;28.43;;;15.20;;
67456;SDS011;54319;52.038;4.640;2023-09-30T06:47:16;32.90;;;15.93;;
67456;SDS011;54319;52.038;4.640;2023-09-30T06:49:43;32.42;;;15.23;;
67456;SDS011;54319;52.038;4.640;2023-09-30T06:52:11;31.88;;;16.20;;
67456;SDS011;54319;52.038;4.640;2023-09-30T06:54:38;33.55;;;16.50;;
67456;SDS011;54319;52.038;4.640;2023-09-30T06:57:05;28.80;;;16.13;;
67456;SDS011;54319;52.038;4.640;2023-09-30T06:59:33;29.10;;;15.75;;
67456;SDS011;54319;52.038;4.640;2023-09-30T07:02:00;22.30;;;14.15;;
67456;SDS011;54319;52.038;4.640;2023-09-30T07:04:28;30.38;;;15.60;;
67456;SDS011;54319;52.038;4.640;2023-09-30T07:06:56;27.40;;;14.57;;
67456;SDS011;54319;52.038;4.640;2023-09-30T07:09:22;30.92;;;15.70;;
67456;SDS011;54319;52.038;4.640;2023-09-30T07:11:52;23.15;;;13.57;;
67456;SDS011;54319;52.038;4.640;2023-09-30T07:14:18;25.00;;;15.05;;
67456;SDS011;54319;52.038;4.640;2023-09-30T07:16:45;25.70;;;14.40;;
67456;SDS011;54319;52.038;4.640;2023-09-30T07:19:11;26.83;;;14.57;;
67456;SDS011;54319;52.038;4.640;2023-09-30T07:21:39;26.20;;;14.97;;
67456;SDS011;54319;52.038;4.640;2023-09-30T07:24:07;25.02;;;14.93;;
67456;SDS011;54319;52.038;4.640;2023-09-30T07:26:34;27.10;;;15.10;;
67456;SDS011;54319;52.038;4.640;2023-09-30T07:29:01;22.17;;;13.55;;
67456;SDS011;54319;52.038;4.640;2023-09-30T07:31:32;28.40;;;14.88;;
67456;SDS011;54319;52.038;4.640;2023-09-30T07:34:00;25.92;;;16.20;;
67456;SDS011;54319;52.038;4.640;2023-09-30T07:36:27;30.52;;;15.98;;
67456;SDS011;54319;52.038;4.640;2023-09-30T07:38:55;25.00;;;15.55;;
67456;SDS011;54319;52.038;4.640;2023-09-30T07:41:22;29.23;;;16.27;;
67456;SDS011;54319;52.038;4.640;2023-09-30T07:43:49;29.73;;;15.73;;
67456;SDS011;54319;52.038;4.640;2023-09-30T07:46:15;28.75;;;15.73;;
67456;SDS011;54319;52.038;4.640;2023-09-30T07:48:42;22.38;;;14.23;;
67456;SDS011;54319;52.038;4.640;2023-09-30T07:51:09;25.73;;;14.23;;
67456;SDS011;54319;52.038;4.640;2023-09-30T07:53:38;21.38;;;12.63;;
67456;SDS011;54319;52.038;4.640;2023-09-30T07:56:08;21.23;;;12.25;;
67456;SDS011;54319;52.038;4.640;2023-09-30T07:58:35;19.15;;;11.60;;
67456;SDS011;54319;52.038;4.640;2023-09-30T08:01:01;19.15;;;11.07;;
67456;SDS011;54319;52.038;4.640;2023-09-30T08:03:29;18.83;;;10.93;;
67456;SDS011;54319;52.038;4.640;2023-09-30T08:05:56;20.70;;;10.70;;
67456;SDS011;54319;52.038;4.640;2023-09-30T08:08:23;17.88;;;9.85;;
67456;SDS011;54319;52.038;4.640;2023-09-30T08:10:50;19.30;;;10.32;;
67456;SDS011;54319;52.038;4.640;2023-09-30T08:13:21;20.33;;;11.50;;
67456;SDS011;54319;52.038;4.640;2023-09-30T08:15:49;19.90;;;10.45;;
67456;SDS011;54319;52.038;4.640;2023-09-30T08:18:15;17.30;;;9.38;;
67456;SDS011;54319;52.038;4.640;2023-09-30T08:20:43;16.73;;;9.30;;
67456;SDS011;54319;52.038;4.640;2023-09-30T08:23:10;18.20;;;9.68;;
67456;SDS011;54319;52.038;4.640;2023-09-30T08:28:04;17.08;;;8.30;;
67456;SDS011;54319;52.038;4.640;2023-09-30T08:30:33;16.67;;;8.77;;
67456;SDS011;54319;52.038;4.640;2023-09-30T08:33:00;17.10;;;9.20;;
67456;SDS011;54319;52.038;4.640;2023-09-30T08:35:26;15.68;;;8.48;;
67456;SDS011;54319;52.038;4.640;2023-09-30T08:37:53;15.75;;;8.77;;
67456;SDS011;54319;52.038;4.640;2023-09-30T08:40:20;16.30;;;9.23;;
67456;SDS011;54319;52.038;4.640;2023-09-30T08:42:48;14.65;;;8.55;;
67456;SDS011;54319;52.038;4.640;2023-09-30T08:45:18;20.90;;;9.70;;
67456;SDS011;54319;52.038;4.640;2023-09-30T08:47:48;15.50;;;9.00;;
67456;SDS011;54319;52.038;4.640;2023-09-30T08:50:16;16.27;;;8.43;;
67456;SDS011;54319;52.038;4.640;2023-09-30T08:52:44;21.48;;;8.98;;
67456;SDS011;54319;52.038;4.640;2023-09-30T08:55:11;20.58;;;8.35;;
67456;SDS011;54319;52.038;4.640;2023-09-30T08:57:39;13.38;;;7.85;;
67456;SDS011;54319;52.038;4.640;2023-09-30T09:00:08;18.40;;;8.20;;
67456;SDS011;54319;52.038;4.640;2023-09-30T09:02:37;17.23;;;7.85;;
67456;SDS011;54319;52.038;4.640;2023-09-30T09:05:08;19.17;;;8.00;;
67456;SDS011;54319;52.038;4.640;2023-09-30T09:07:36;12.77;;;7.65;;
67456;SDS011;54319;52.038;4.640;2023-09-30T09:10:03;18.55;;;8.25;;
67456;SDS011;54319;52.038;4.640;2023-09-30T09:12:31;12.13;;;6.53;;
67456;SDS011;54319;52.038;4.640;2023-09-30T09:17:25;13.20;;;5.70;;
67456;SDS011;54319;52.038;4.640;2023-09-30T09:20:06;13.45;;;5.18;;
67456;SDS011;54319;52.038;4.640;2023-09-30T09:22:39;12.63;;;6.13;;
67456;SDS011;54319;52.038;4.640;2023-09-30T09:25:06;14.10;;;5.60;;
67456;SDS011;54319;52.038;4.640;2023-09-30T09:27:34;10.05;;;5.22;;
67456;SDS011;54319;52.038;4.640;2023-09-30T09:30:13;12.02;;;4.63;;
67456;SDS011;54319;52.038;4.640;2023-09-30T09:32:58;11.98;;;4.55;;
67456;SDS011;54319;52.038;4.640;2023-09-30T09:35:27;10.27;;;4.20;;
67456;SDS011;54319;52.038;4.640;2023-09-30T09:37:56;9.90;;;3.90;;
67456;SDS011;54319;52.038;4.640;2023-09-30T09:40:24;6.90;;;3.47;;
67456;SDS011;54319;52.038;4.640;2023-09-30T09:42:52;8.50;;;3.72;;
67456;SDS011;54319;52.038;4.640;2023-09-30T09:45:21;10.77;;;3.60;;
67456;SDS011;54319;52.038;4.640;2023-09-30T09:47:49;10.90;;;3.60;;
67456;SDS011;54319;52.038;4.640;2023-09-30T09:50:18;14.15;;;3.33;;
67456;SDS011;54319;52.038;4.640;2023-09-30T09:52:48;10.65;;;3.75;;
67456;SDS011;54319;52.038;4.640;2023-09-30T09:55:16;14.07;;;3.50;;
67456;SDS011;54319;52.038;4.640;2023-09-30T09:57:44;10.10;;;3.17;;
67456;SDS011;54319;52.038;4.640;2023-09-30T10:00:11;10.63;;;3.55;;
67456;SDS011;54319;52.038;4.640;2023-09-30T10:02:40;8.30;;;2.80;;
67456;SDS011;54319;52.038;4.640;2023-09-30T10:05:07;7.35;;;3.30;;
67456;SDS011;54319;52.038;4.640;2023-09-30T10:07:37;7.13;;;2.65;;
67456;SDS011;54319;52.038;4.640;2023-09-30T10:10:11;8.95;;;2.40;;
67456;SDS011;54319;52.038;4.640;2023-09-30T10:12:40;8.43;;;2.40;;
67456;SDS011;54319;52.038;4.640;2023-09-30T10:17:58;7.00;;;2.17;;
67456;SDS011;54319;52.038;4.640;2023-09-30T10:20:27;7.88;;;2.25;;
67456;SDS011;54319;52.038;4.640;2023-09-30T10:25:45;7.70;;;2.05;;
67456;SDS011;54319;52.038;4.640;2023-09-30T10:31:08;8.38;;;2.25;;
67456;SDS011;54319;52.038;4.640;2023-09-30T10:33:36;5.55;;;2.13;;
67456;SDS011;54319;52.038;4.640;2023-09-30T10:36:03;18.38;;;2.63;;
67456;SDS011;54319;52.038;4.640;2023-09-30T10:38:37;9.18;;;2.22;;
67456;SDS011;54319;52.038;4.640;2023-09-30T10:41:13;9.10;;;1.83;;
67456;SDS011;54319;52.038;4.640;2023-09-30T10:50:03;8.77;;;1.75;;
67456;SDS011;54319;52.038;4.640;2023-09-30T10:52:54;9.82;;;2.50;;
67456;SDS011;54319;52.038;4.640;2023-09-30T10:55:22;5.43;;;1.65;;
67456;SDS011;54319;52.038;4.640;2023-09-30T10:57:50;4.75;;;1.70;;
67456;SDS011;54319;52.038;4.640;2023-09-30T11:02:47;7.55;;;1.98;;
67456;SDS011;54319;52.038;4.640;2023-09-30T11:05:16;7.15;;;2.00;;
67456;SDS011;54319;52.038;4.640;2023-09-30T11:07:44;6.13;;;1.90;;
67456;SDS011;54319;52.038;4.640;2023-09-30T11:10:16;6.63;;;1.73;;
67456;SDS011;54319;52.038;4.640;2023-09-30T11:12:53;6.80;;;1.63;;
67456;SDS011;54319;52.038;4.640;2023-09-30T11:15:20;5.68;;;2.10;;
67456;SDS011;54319;52.038;4.640;2023-09-30T11:17:47;8.48;;;2.33;;
67456;SDS011;54319;52.038;4.640;2023-09-30T11:20:14;6.03;;;1.85;;
67456;SDS011;54319;52.038;4.640;2023-09-30T11:22:42;5.93;;;1.80;;
67456;SDS011;54319;52.038;4.640;2023-09-30T11:25:14;7.28;;;2.15;;
67456;SDS011;54319;52.038;4.640;2023-09-30T11:27:44;7.20;;;2.28;;
67456;SDS011;54319;52.038;4.640;2023-09-30T11:30:12;5.25;;;1.95;;
67456;SDS011;54319;52.038;4.640;2023-09-30T11:32:39;8.73;;;2.20;;
67456;SDS011;54319;52.038;4.640;2023-09-30T11:35:08;7.18;;;2.00;;
67456;SDS011;54319;52.038;4.640;2023-09-30T11:37:37;7.30;;;2.08;;
67456;SDS011;54319;52.038;4.640;2023-09-30T11:40:11;8.40;;;2.55;;
67456;SDS011;54319;52.038;4.640;2023-09-30T11:42:41;7.53;;;2.20;;
67456;SDS011;54319;52.038;4.640;2023-09-30T11:45:20;8.02;;;2.50;;
67456;SDS011;54319;52.038;4.640;2023-09-30T11:47:47;9.70;;;2.80;;
67456;SDS011;54319;52.038;4.640;2023-09-30T11:50:14;8.32;;;2.20;;
67456;SDS011;54319;52.038;4.640;2023-09-30T11:52:43;8.98;;;2.63;;
67456;SDS011;54319;52.038;4.640;2023-09-30T11:55:11;12.00;;;3.03;;
67456;SDS011;54319;52.038;4.640;2023-09-30T11:57:38;11.00;;;3.20;;
67456;SDS011;54319;52.038;4.640;2023-09-30T12:00:07;12.15;;;2.80;;
67456;SDS011;54319;52.038;4.640;2023-09-30T12:02:38;5.57;;;2.40;;
67456;SDS011;54319;52.038;4.640;2023-09-30T12:05:07;7.28;;;2.40;;
67456;SDS011;54319;52.038;4.640;2023-09-30T12:07:36;6.93;;;2.55;;
67456;SDS011;54319;52.038;4.640;2023-09-30T12:10:03;8.35;;;2.45;;
67456;SDS011;54319;52.038;4.640;2023-09-30T12:12:30;7.97;;;2.60;;
67456;SDS011;54319;52.038;4.640;2023-09-30T12:14:57;15.40;;;2.63;;
67456;SDS011;54319;52.038;4.640;2023-09-30T12:17:25;8.98;;;2.60;;
67456;SDS011;54319;52.038;4.640;2023-09-30T12:19:51;9.13;;;2.92;;
67456;SDS011;54319;52.038;4.640;2023-09-30T12:22:18;8.20;;;2.63;;
67456;SDS011;54319;52.038;4.640;2023-09-30T12:24:45;8.57;;;2.85;;
67456;SDS011;54319;52.038;4.640;2023-09-30T12:27:12;7.88;;;3.00;;
67456;SDS011;54319;52.038;4.640;2023-09-30T12:29:39;9.88;;;3.05;;
67456;SDS011;54319;52.038;4.640;2023-09-30T12:32:07;8.52;;;3.35;;
67456;SDS011;54319;52.038;4.640;2023-09-30T12:34:36;9.43;;;3.20;;
67456;SDS011;54319;52.038;4.640;2023-09-30T12:37:03;11.95;;;3.63;;
67456;SDS011;54319;52.038;4.640;2023-09-30T12:39:30;9.13;;;3.58;;
67456;SDS011;54319;52.038;4.640;2023-09-30T12:41:58;12.65;;;3.30;;
67456;SDS011;54319;52.038;4.640;2023-09-30T12:44:24;7.97;;;3.08;;
67456;SDS011;54319;52.038;4.640;2023-09-30T12:46:51;10.23;;;3.10;;
67456;SDS011;54319;52.038;4.640;2023-09-30T12:49:18;7.35;;;2.50;;
67456;SDS011;54319;52.038;4.640;2023-09-30T12:54:13;8.75;;;2.70;;
67456;SDS011;54319;52.038;4.640;2023-09-30T12:56:41;8.52;;;2.70;;
67456;SDS011;54319;52.038;4.640;2023-09-30T12:59:08;7.70;;;2.75;;
67456;SDS011;54319;52.038;4.640;2023-09-30T13:04:01;11.90;;;3.00;;
67456;SDS011;54319;52.038;4.640;2023-09-30T13:06:28;13.05;;;3.42;;
67456;SDS011;54319;52.038;4.640;2023-09-30T13:08:58;9.63;;;2.92;;
67456;SDS011;54319;52.038;4.640;2023-09-30T13:11:25;8.95;;;3.00;;
67456;SDS011;54319;52.038;4.640;2023-09-30T13:13:52;20.10;;;3.97;;
67456;SDS011;54319;52.038;4.640;2023-09-30T13:16:18;10.55;;;3.58;;
67456;SDS011;54319;52.038;4.640;2023-09-30T13:18:45;10.75;;;3.55;;
67456;SDS011;54319;52.038;4.640;2023-09-30T13:21:12;8.98;;;3.40;;
67456;SDS011;54319;52.038;4.640;2023-09-30T13:23:39;9.98;;;3.58;;
67456;SDS011;54319;52.038;4.640;2023-09-30T13:26:07;7.60;;;2.97;;
67456;SDS011;54319;52.038;4.640;2023-09-30T13:28:33;10.52;;;3.10;;
67456;SDS011;54319;52.038;4.640;2023-09-30T13:31:00;8.48;;;3.15;;
67456;SDS011;54319;52.038;4.640;2023-09-30T13:33:27;10.07;;;3.22;;
67456;SDS011;54319;52.038;4.640;2023-09-30T13:35:53;8.55;;;3.10;;
67456;SDS011;54319;52.038;4.640;2023-09-30T13:38:21;10.27;;;3.53;;
67456;SDS011;54319;52.038;4.640;2023-09-30T13:40:47;11.77;;;3.30;;
67456;SDS011;54319;52.038;4.640;2023-09-30T13:43:15;14.23;;;3.85;;
67456;SDS011;54319;52.038;4.640;2023-09-30T13:45:43;14.88;;;3.75;;
67456;SDS011;54319;52.038;4.640;2023-09-30T13:48:10;11.52;;;3.53;;
67456;SDS011;54319;52.038;4.640;2023-09-30T13:50:36;10.38;;;3.55;;
67456;SDS011;54319;52.038;4.640;2023-09-30T13:53:03;13.65;;;3.42;;
67456;SDS011;54319;52.038;4.640;2023-09-30T13:57:56;11.30;;;3.10;;
67456;SDS011;54319;52.038;4.640;2023-09-30T14:00:24;9.63;;;3.15;;
67456;SDS011;54319;52.038;4.640;2023-09-30T14:02:52;10.07;;;3.13;;
67456;SDS011;54319;52.038;4.640;2023-09-30T14:05:20;12.80;;;3.78;;
67456;SDS011;54319;52.038;4.640;2023-09-30T14:07:48;9.57;;;2.92;;
67456;SDS011;54319;52.038;4.640;2023-09-30T14:10:16;12.55;;;3.08;;
67456;SDS011;54319;52.038;4.640;2023-09-30T14:12:43;8.15;;;2.80;;
67456;SDS011;54319;52.038;4.640;2023-09-30T14:15:10;12.88;;;2.75;;
67456;SDS011;54319;52.038;4.640;2023-09-30T14:17:39;9.25;;;2.33;;
67456;SDS011;54319;52.038;4.640;2023-09-30T14:20:06;6.32;;;2.35;;
67456;SDS011;54319;52.038;4.640;2023-09-30T14:22:34;9.55;;;2.45;;
67456;SDS011;54319;52.038;4.640;2023-09-30T14:25:00;7.97;;;2.58;;
67456;SDS011;54319;52.038;4.640;2023-09-30T14:27:27;7.43;;;2.45;;
67456;SDS011;54319;52.038;4.640;2023-09-30T14:29:54;12.15;;;2.80;;
67456;SDS011;54319;52.038;4.640;2023-09-30T14:32:21;7.32;;;2.70;;
67456;SDS011;54319;52.038;4.640;2023-09-30T14:34:50;10.18;;;2.88;;
67456;SDS011;54319;52.038;4.640;2023-09-30T14:37:18;11.77;;;2.72;;
67456;SDS011;54319;52.038;4.640;2023-09-30T14:39:45;8.05;;;2.35;;
67456;SDS011;54319;52.038;4.640;2023-09-30T14:42:12;10.95;;;2.50;;
67456;SDS011;54319;52.038;4.640;2023-09-30T14:44:40;7.75;;;2.10;;
67456;SDS011;54319;52.038;4.640;2023-09-30T14:47:07;9.93;;;2.70;;
67456;SDS011;54319;52.038;4.640;2023-09-30T14:49:35;5.25;;;2.28;;
67456;SDS011;54319;52.038;4.640;2023-09-30T14:52:03;6.00;;;2.08;;
67456;SDS011;54319;52.038;4.640;2023-09-30T14:54:30;7.72;;;2.53;;
67456;SDS011;54319;52.038;4.640;2023-09-30T14:56:57;7.82;;;2.33;;
67456;SDS011;54319;52.038;4.640;2023-09-30T14:59:24;7.65;;;2.00;;
67456;SDS011;54319;52.038;4.640;2023-09-30T15:01:50;6.82;;;2.35;;
67456;SDS011;54319;52.038;4.640;2023-09-30T15:04:18;11.52;;;2.25;;
67456;SDS011;54319;52.038;4.640;2023-09-30T15:06:45;6.45;;;1.95;;
67456;SDS011;54319;52.038;4.640;2023-09-30T15:09:13;12.20;;;2.40;;
67456;SDS011;54319;52.038;4.640;2023-09-30T15:11:41;6.30;;;2.13;;
67456;SDS011;54319;52.038;4.640;2023-09-30T15:14:11;9.98;;;2.03;;
67456;SDS011;54319;52.038;4.640;2023-09-30T15:16:38;5.53;;;1.80;;
67456;SDS011;54319;52.038;4.640;2023-09-30T15:19:05;9.60;;;2.30;;
67456;SDS011;54319;52.038;4.640;2023-09-30T15:21:33;8.18;;;1.95;;